Time;durP1;ratioP1;P1;durP2;ratioP2;P2;SDS_P1;SDS_P2;PMS_P1;PMS_P2;Temp;Humidity;BMP_temperature;BMP_pressure;BME280_temperature;BME280_humidity;BME280_pressure;Samples;Min_cycle;Max_cycle;Signal;HPM_P1;HPM_P2
2022/04/12 00:00:56;;;;;;;9.10;6.33;;;;;;;5.57;92.48;99828.50;4984582;28;20234;-60
2022/04/12 00:03:22;;;;;;;7.50;6.00;;;;;;;5.53;92.63;99832.06;4990466;28;20662;-58
2022/04/12 00:05:47;;;;;;;5.73;5.10;;;;;;;5.45;92.96;99832.34;4972975;28;20762;-60
2022/04/12 00:08:13;;;;;;;8.47;5.50;;;;;;;5.47;93.60;99830.56;4973170;28;20176;-61
2022/04/12 00:10:39;;;;;;;8.17;6.63;;;;;;;5.49;93.68;99835.63;4960854;28;20607;-61
2022/04/12 00:13:04;;;;;;;9.17;6.70;;;;;;;5.50;93.49;99820.25;4960363;28;20219;-59
2022/04/12 00:15:30;;;;;;;7.93;6.00;;;;;;;5.51;93.14;99821.09;4973330;28;20281;-60
2022/04/12 00:20:40;;;;;;;7.00;5.27;;;;;;;5.42;93.36;99818.88;4963049;28;20234;-60
2022/04/12 00:23:06;;;;;;;6.77;5.83;;;;;;;5.43;93.88;99818.84;4971994;28;20172;-60
2022/04/12 00:25:31;;;;;;;6.50;5.83;;;;;;;5.49;93.67;99815.19;4971660;28;20652;-60
2022/04/12 00:27:58;;;;;;;7.23;5.90;;;;;;;5.45;93.78;99809.38;4971428;28;20263;-59
2022/04/12 00:30:26;;;;;;;9.43;6.23;;;;;;;5.56;93.61;99800.50;4961498;28;20703;-60
2022/04/12 00:32:52;;;;;;;6.63;5.83;;;;;;;5.58;93.15;99804.66;4958392;28;20195;-60
2022/04/12 00:35:19;;;;;;;7.03;5.83;;;;;;;5.60;93.03;99813.06;4971577;28;20187;-58
2022/04/12 00:37:46;;;;;;;8.60;6.27;;;;;;;5.58;92.58;99811.47;4971731;28;20275;-59
2022/04/12 00:40:13;;;;;;;15.50;6.70;;;;;;;5.59;92.61;99808.03;4967413;28;20330;-59
2022/04/12 00:42:38;;;;;;;6.43;5.77;;;;;;;5.46;93.47;99808.50;4990391;28;20274;-61
2022/04/12 00:45:04;;;;;;;8.90;5.63;;;;;;;5.51;93.51;99813.44;4984665;28;20259;-59
2022/04/12 00:47:30;;;;;;;6.87;5.27;;;;;;;5.67;93.02;99808.56;4972588;28;20334;-59
2022/04/12 00:49:55;;;;;;;6.97;6.13;;;;;;;5.63;93.32;99810.41;4985606;28;20259;-59
2022/04/12 00:52:21;;;;;;;6.50;5.70;;;;;;;5.63;93.24;99805.31;4964354;28;20587;-59
2022/04/12 00:54:48;;;;;;;6.20;5.60;;;;;;;5.61;93.09;99807.09;4972611;28;20171;-58
2022/04/12 00:57:14;;;;;;;8.90;6.70;;;;;;;5.60;93.21;99802.88;4971523;28;20252;-59
2022/04/12 00:59:43;;;;;;;9.70;6.10;;;;;;;5.65;92.96;99806.06;4971409;28;20643;-58
2022/04/12 01:02:09;;;;;;;5.90;5.30;;;;;;;5.63;92.71;99804.47;4975647;28;20227;-59
2022/04/12 01:04:34;;;;;;;6.27;5.67;;;;;;;5.64;92.58;99808.69;4972210;28;20231;-60
2022/04/12 01:07:00;;;;;;;7.80;5.57;;;;;;;5.60;92.75;99805.41;4971527;28;20204;-59
2022/04/12 01:09:26;;;;;;;9.10;5.27;;;;;;;5.60;92.91;99802.88;4972669;28;20718;-60
2022/04/12 01:11:53;;;;;;;6.13;5.07;;;;;;;5.61;93.29;99796.06;4978895;28;20234;-60
2022/04/12 01:14:20;;;;;;;7.80;5.63;;;;;;;5.63;93.57;99800.22;4972314;28;20326;-60
2022/04/12 01:16:45;;;;;;;7.33;6.20;;;;;;;5.60;93.66;99807.97;4972336;28;20184;-59
2022/04/12 01:19:11;;;;;;;7.23;6.30;;;;;;;5.61;93.26;99793.50;4972892;28;20195;-59
2022/04/12 01:22:03;;;;;;;7.20;5.30;;;;;;;5.51;93.67;99790.47;4991017;28;20230;-60
2022/04/12 01:24:30;;;;;;;7.30;6.23;;;;;;;5.60;94.29;99796.94;4973077;28;20200;-59
2022/04/12 01:26:56;;;;;;;6.87;5.80;;;;;;;5.53;95.12;99791.22;4975955;28;20306;-59
2022/04/12 01:29:23;;;;;;;6.30;5.30;;;;;;;5.48;94.99;99799.06;4976145;28;20203;-59
2022/04/12 01:31:48;;;;;;;7.10;6.10;;;;;;;5.56;94.94;99801.31;4982052;28;20223;-60
2022/04/12 01:34:14;;;;;;;6.23;5.20;;;;;;;5.48;94.92;99800.78;4979492;28;20250;-60
2022/04/12 01:36:39;;;;;;;8.27;5.77;;;;;;;5.36;95.06;99798.69;4976084;28;20175;-60
2022/04/12 01:39:04;;;;;;;8.30;6.87;;;;;;;5.31;95.19;99793.78;4975984;28;20210;-60
2022/04/12 01:41:29;;;;;;;8.53;6.33;;;;;;;5.27;95.13;99797.31;4981179;28;20219;-61
2022/04/12 01:43:55;;;;;;;6.73;5.97;;;;;;;5.30;95.20;99797.22;4994238;28;20211;-59
2022/04/12 01:46:20;;;;;;;7.50;6.27;;;;;;;5.31;94.87;99799.72;4995274;28;20205;-60
2022/04/12 01:48:47;;;;;;;7.80;5.90;;;;;;;5.32;95.05;99792.88;4995262;28;20187;-59
2022/04/12 01:51:13;;;;;;;8.73;6.70;;;;;;;5.31;95.22;99789.50;4984615;28;20274;-59
2022/04/12 01:53:39;;;;;;;7.23;6.43;;;;;;;5.28;95.23;99797.28;4982605;28;20234;-61
2022/04/12 01:56:04;;;;;;;6.80;5.97;;;;;;;5.23;96.21;99788.13;4975343;28;20176;-60
2022/04/12 01:58:31;;;;;;;7.80;6.23;;;;;;;5.13;96.87;99780.81;4978866;28;20251;-59
2022/04/12 02:00:56;;;;;;;6.33;5.67;;;;;;;5.22;96.64;99794.97;4986793;28;20234;-59
2022/04/12 02:03:22;;;;;;;7.70;6.10;;;;;;;5.25;96.46;99786.38;4982628;28;20180;-59
2022/04/12 02:05:47;;;;;;;8.27;6.90;;;;;;;5.22;96.33;99786.47;4975761;28;20232;-60
2022/04/12 02:08:12;;;;;;;9.03;6.77;;;;;;;5.22;96.29;99784.78;4975288;28;20188;-60
2022/04/12 02:10:37;;;;;;;7.60;6.00;;;;;;;5.21;96.06;99788.19;4974462;28;20246;-61
2022/04/12 02:13:03;;;;;;;7.50;5.73;;;;;;;5.23;96.00;99790.69;4997460;28;20196;-61
2022/04/12 02:15:28;;;;;;;7.73;6.00;;;;;;;5.22;96.49;99789.03;4975197;28;20173;-61
2022/04/12 02:17:53;;;;;;;8.77;6.90;;;;;;;5.15;96.86;99788.44;4975136;28;20195;-60
2022/04/12 02:20:19;;;;;;;9.23;7.00;;;;;;;4.92;98.68;99792.63;4969751;28;20176;-60
2022/04/12 02:22:44;;;;;;;13.47;7.23;;;;;;;4.93;100.00;99791.75;4987628;28;20179;-60
2022/04/12 02:25:09;;;;;;;7.77;6.60;;;;;;;5.03;100.00;99786.34;4974610;28;20694;-60
2022/04/12 02:27:35;;;;;;;8.60;6.70;;;;;;;5.00;99.97;99789.81;4974863;28;20207;-62
2022/04/12 02:30:00;;;;;;;6.57;5.97;;;;;;;5.02;100.00;99790.59;4974841;28;20543;-59
2022/04/12 02:32:25;;;;;;;7.23;6.30;;;;;;;4.95;100.00;99781.50;4995420;28;20235;-60
2022/04/12 02:34:50;;;;;;;7.13;5.90;;;;;;;4.97;100.00;99785.69;4974582;28;20184;-60
2022/04/12 02:37:16;;;;;;;8.37;6.23;;;;;;;4.95;99.93;99784.88;4974948;28;20301;-60
2022/04/12 02:39:41;;;;;;;14.27;6.27;;;;;;;4.92;100.00;99786.72;4990885;28;20184;-60
2022/04/12 02:42:07;;;;;;;10.63;7.10;;;;;;;4.94;100.00;99782.41;4999237;28;20233;-59
2022/04/12 02:44:32;;;;;;;10.93;6.73;;;;;;;4.82;100.00;99787.03;4985723;28;20184;-59
2022/04/12 02:46:57;;;;;;;7.03;6.13;;;;;;;4.78;100.00;99790.59;4974818;28;20234;-60
2022/04/12 02:49:23;;;;;;;7.20;6.50;;;;;;;4.83;100.00;99786.16;4974693;28;20472;-61
2022/04/12 02:51:50;;;;;;;6.40;5.80;;;;;;;4.83;100.00;99783.59;4966403;28;20272;-61
2022/04/12 02:54:15;;;;;;;7.30;5.87;;;;;;;4.87;100.00;99778.41;4976928;28;20210;-60
2022/04/12 02:56:41;;;;;;;6.17;5.57;;;;;;;4.79;100.00;99787.16;4982147;28;20182;-61
2022/04/12 02:59:06;;;;;;;7.93;6.17;;;;;;;4.85;100.00;99783.56;4992905;28;20171;-60
2022/04/12 03:01:31;;;;;;;7.07;6.17;;;;;;;4.87;100.00;99786.06;4984696;28;20534;-61
2022/04/12 03:03:57;;;;;;;10.50;7.20;;;;;;;4.67;100.00;99790.13;4977728;28;20266;-61
2022/04/12 03:06:22;;;;;;;6.93;6.23;;;;;;;4.72;100.00;99785.69;4974394;28;20327;-61
2022/04/12 03:08:48;;;;;;;6.33;5.73;;;;;;;4.74;100.00;99786.50;4974385;28;20203;-59
2022/04/12 03:11:13;;;;;;;8.23;5.97;;;;;;;4.79;100.00;99779.50;4972914;28;20234;-61
2022/04/12 03:13:38;;;;;;;7.30;5.63;;;;;;;4.77;100.00;99781.25;4989162;28;20187;-62
2022/04/12 03:16:04;;;;;;;6.17;5.57;;;;;;;4.76;100.00;99783.88;4999630;28;20229;-61
2022/04/12 03:18:29;;;;;;;9.30;6.53;;;;;;;4.75;100.00;99774.56;5003424;28;20687;-60
2022/04/12 03:20:55;;;;;;;8.93;6.43;;;;;;;4.72;100.00;99780.59;5002270;28;20800;-61
2022/04/12 03:23:20;;;;;;;6.80;5.67;;;;;;;4.77;100.00;99776.16;5002228;28;20179;-60
2022/04/12 03:25:46;;;;;;;6.53;5.57;;;;;;;4.77;100.00;99773.63;5012684;28;20234;-61
2022/04/12 03:28:11;;;;;;;8.40;5.87;;;;;;;4.76;100.00;99776.22;5013261;28;20197;-60
2022/04/12 03:30:36;;;;;;;7.33;6.13;;;;;;;4.77;100.00;99776.16;4975753;28;20309;-59
2022/04/12 03:33:02;;;;;;;6.13;5.53;;;;;;;4.65;100.00;99763.88;4993520;28;20279;-60
2022/04/12 03:35:28;;;;;;;10.27;6.17;;;;;;;4.66;100.00;99757.88;4991210;28;20209;-60
2022/04/12 03:37:59;;;;;;;7.80;6.13;;;;;;;4.76;100.00;99768.59;4991937;28;20190;-61
2022/04/12 03:40:27;;;;;;;5.80;5.20;;;;;;;4.76;100.00;99769.41;4985830;28;20584;-61
2022/04/12 03:42:53;;;;;;;6.57;5.50;;;;;;;4.76;100.00;99766.84;4977661;28;20183;-61
2022/04/12 03:45:18;;;;;;;7.80;6.57;;;;;;;4.79;100.00;99768.50;4972219;28;20184;-62
2022/04/12 03:47:43;;;;;;;6.27;5.63;;;;;;;4.69;100.00;99768.81;4973500;28;20218;-62
2022/04/12 03:50:09;;;;;;;8.30;6.40;;;;;;;4.77;100.00;99762.63;4963468;28;20554;-61
2022/04/12 03:52:34;;;;;;;11.37;6.63;;;;;;;4.79;100.00;99771.03;4962477;28;20176;-61
2022/04/12 03:55:00;;;;;;;6.90;5.93;;;;;;;4.75;100.00;99782.22;4984813;28;20236;-61
2022/04/12 03:57:25;;;;;;;8.07;5.97;;;;;;;4.76;100.00;99778.78;4993085;28;20180;-61
2022/04/12 03:59:50;;;;;;;6.63;5.50;;;;;;;4.76;100.00;99773.69;4991428;28;20230;-61
2022/04/12 04:02:16;;;;;;;9.80;5.90;;;;;;;4.67;100.00;99769.75;4995710;28;20218;-60
2022/04/12 04:04:41;;;;;;;6.33;5.73;;;;;;;4.66;100.00;99768.09;4973094;28;20232;-59
2022/04/12 04:07:06;;;;;;;6.30;5.70;;;;;;;4.65;100.00;99776.59;4973240;28;20272;-60
2022/04/12 04:09:32;;;;;;;8.23;6.60;;;;;;;4.72;100.00;99779.78;4973113;28;20184;-60
2022/04/12 04:11:57;;;;;;;8.87;5.80;;;;;;;4.63;100.00;99775.84;4993204;28;20677;-62
2022/04/12 04:14:23;;;;;;;9.70;5.90;;;;;;;4.55;100.00;99777.81;4972161;28;20217;-61
2022/04/12 04:16:48;;;;;;;10.07;6.53;;;;;;;4.55;100.00;99777.81;4972945;28;20194;-61
2022/04/12 04:19:13;;;;;;;9.37;6.17;;;;;;;4.63;100.00;99783.50;4973244;28;20266;-62
2022/04/12 04:21:39;;;;;;;10.03;6.37;;;;;;;4.68;100.00;99774.78;4988218;28;20222;-61
2022/04/12 04:24:04;;;;;;;9.13;7.23;;;;;;;4.72;100.00;99785.69;4974179;28;20270;-60
2022/04/12 04:26:31;;;;;;;12.13;6.67;;;;;;;4.77;100.00;99780.44;4971701;28;20230;-60
2022/04/12 04:28:57;;;;;;;7.80;6.97;;;;;;;4.76;100.00;99787.25;4971939;28;20191;-60
2022/04/12 04:31:22;;;;;;;8.93;5.97;;;;;;;4.67;100.00;99783.31;4953950;28;20278;-59
2022/04/12 04:33:48;;;;;;;8.90;6.50;;;;;;;4.72;100.00;99787.44;4979985;28;20179;-60
2022/04/12 04:36:13;;;;;;;9.07;5.67;;;;;;;4.73;100.00;99784.00;4991186;28;20179;-60
2022/04/12 04:38:38;;;;;;;7.77;6.57;;;;;;;4.74;100.00;99783.94;4990965;28;20678;-64
2022/04/12 04:41:03;;;;;;;8.63;6.67;;;;;;;4.74;100.00;99770.34;4957675;28;20228;-60
2022/04/12 04:43:29;;;;;;;9.93;6.53;;;;;;;4.75;100.00;99782.22;4963462;28;20660;-61
2022/04/12 04:45:54;;;;;;;9.67;6.30;;;;;;;4.67;100.00;99787.59;4972739;28;20675;-61
2022/04/12 04:48:19;;;;;;;6.90;6.07;;;;;;;4.75;100.00;99794.94;4973415;28;20203;-61
2022/04/12 04:50:45;;;;;;;7.23;6.50;;;;;;;4.74;100.00;99799.22;4962600;28;20231;-61
2022/04/12 04:53:10;;;;;;;9.67;6.13;;;;;;;4.69;100.00;99796.84;4988000;28;20229;-61
2022/04/12 04:55:37;;;;;;;7.93;6.47;;;;;;;4.71;100.00;99789.13;4994865;28;20186;-60
2022/04/12 04:58:04;;;;;;;9.93;6.53;;;;;;;4.74;100.00;99789.03;4996215;28;20609;-61
2022/04/12 05:00:32;;;;;;;7.47;5.97;;;;;;;4.73;100.00;99795.00;4983902;28;20703;-59
2022/04/12 05:02:59;;;;;;;8.77;7.03;;;;;;;4.79;100.00;99788.88;4994171;28;20254;-60
2022/04/12 05:05:25;;;;;;;8.97;7.27;;;;;;;4.80;100.00;99793.91;4995878;28;20682;-60
2022/04/12 05:07:53;;;;;;;8.80;7.43;;;;;;;4.91;100.00;99792.69;4994103;28;20199;-60
2022/04/12 05:10:21;;;;;;;11.77;9.23;;;;;;;4.84;100.00;99792.09;4986613;28;20222;-61
2022/04/12 05:12:46;;;;;;;12.57;7.97;;;;;;;4.77;100.00;99794.00;5008627;28;20321;-60
2022/04/12 05:15:12;;;;;;;10.27;8.37;;;;;;;4.72;100.00;99792.53;4995355;28;20214;-61
2022/04/12 05:17:37;;;;;;;9.67;6.87;;;;;;;4.87;100.00;99791.16;4995814;28;20182;-60
2022/04/12 05:20:06;;;;;;;11.33;7.00;;;;;;;5.00;100.00;99789.81;4991092;28;20176;-59
2022/04/12 05:22:31;;;;;;;9.37;7.10;;;;;;;5.12;100.00;99791.94;5010198;28;20291;-59
2022/04/12 05:24:56;;;;;;;10.07;7.30;;;;;;;5.19;99.56;99795.06;4995423;28;20259;-60
2022/04/12 05:27:22;;;;;;;11.57;7.07;;;;;;;5.22;99.30;99794.97;4995741;28;20641;-62
2022/04/12 05:29:48;;;;;;;9.73;7.40;;;;;;;5.25;98.50;99799.94;4976864;28;20203;-59
2022/04/12 05:32:13;;;;;;;8.83;7.13;;;;;;;5.33;98.46;99802.19;4981129;28;20255;-59
2022/04/12 05:34:40;;;;;;;12.97;8.03;;;;;;;5.45;98.14;99808.56;4977214;28;20191;-61
2022/04/12 05:37:06;;;;;;;9.87;7.77;;;;;;;5.49;97.65;99807.56;4980244;28;20178;-59
2022/04/12 05:39:32;;;;;;;12.13;8.23;;;;;;;5.58;97.41;99814.03;4995670;28;20258;-59
2022/04/12 05:42:01;;;;;;;8.47;7.20;;;;;;;5.66;96.85;99804.34;4971417;28;20251;-59
2022/04/12 05:44:28;;;;;;;11.43;7.97;;;;;;;5.75;96.14;99798.88;4993104;28;20187;-59
2022/04/12 05:46:53;;;;;;;11.50;7.27;;;;;;;5.78;95.73;99801.31;4993905;28;20209;-59
2022/04/12 05:49:19;;;;;;;8.87;6.53;;;;;;;6.12;95.05;99800.00;4989068;28;20176;-60
2022/04/12 05:51:44;;;;;;;8.67;6.90;;;;;;;6.40;92.66;99801.41;4967423;28;20262;-59
2022/04/12 05:54:09;;;;;;;9.50;6.90;;;;;;;6.72;90.51;99803.47;4978774;28;20288;-59
2022/04/12 05:56:34;;;;;;;10.47;7.13;;;;;;;7.09;87.06;99796.75;4975875;28;20634;-59
2022/04/12 05:59:00;;;;;;;7.80;6.30;;;;;;;7.44;84.19;99796.84;4974464;28;20196;-59
2022/04/12 06:01:25;;;;;;;8.53;5.73;;;;;;;7.77;82.28;99796.19;4983803;28;20679;-59
2022/04/12 06:03:50;;;;;;;12.30;7.60;;;;;;;8.01;79.17;99796.75;4974624;28;20323;-60
2022/04/12 06:06:16;;;;;;;7.43;6.20;;;;;;;7.98;73.11;99791.75;4975068;28;20252;-59
2022/04/12 06:08:41;;;;;;;7.07;6.07;;;;;;;8.23;72.98;99799.06;4975633;28;20188;-59
2022/04/12 06:11:07;;;;;;;7.43;6.63;;;;;;;8.44;72.58;99800.66;4974964;28;20231;-60
2022/04/12 06:13:32;;;;;;;7.47;6.13;;;;;;;8.67;71.78;99799.47;5009650;28;20194;-60
2022/04/12 06:15:57;;;;;;;6.87;5.77;;;;;;;8.79;70.06;99801.41;5010716;28;20177;-61
2022/04/12 06:18:22;;;;;;;6.70;5.90;;;;;;;8.73;66.91;99796.59;5011295;28;20277;-60
2022/04/12 06:20:48;;;;;;;7.63;6.13;;;;;;;8.82;65.76;99803.00;4996370;28;20280;-60
2022/04/12 06:23:14;;;;;;;8.53;6.30;;;;;;;9.00;64.57;99801.22;5012106;28;20179;-61
2022/04/12 06:25:39;;;;;;;7.37;6.00;;;;;;;9.04;63.52;99803.53;5006007;28;20216;-60
2022/04/12 06:28:07;;;;;;;8.07;6.03;;;;;;;8.97;63.51;99798.81;5008624;28;20224;-60
2022/04/12 06:30:32;;;;;;;9.80;6.27;;;;;;;9.15;61.92;99802.13;4981588;28;20562;-60
2022/04/12 06:32:58;;;;;;;7.30;5.80;;;;;;;9.30;61.07;99793.63;4985710;28;20217;-62
2022/04/12 06:35:23;;;;;;;11.40;6.27;;;;;;;9.34;59.29;99801.97;5011526;28;20567;-60
2022/04/12 06:37:53;;;;;;;9.33;6.20;;;;;;;9.60;58.83;99797.16;5010785;28;20226;-62
2022/04/12 06:40:20;;;;;;;8.23;5.77;;;;;;;9.63;59.02;99804.69;5003093;28;20232;-60
2022/04/12 06:42:50;;;;;;;13.43;6.60;;;;;;;9.99;56.34;99803.53;5006470;28;20182;-60
2022/04/12 06:45:16;;;;;;;8.17;6.17;;;;;;;10.05;55.40;99815.19;5009169;28;20187;-61
2022/04/12 06:47:42;;;;;;;6.83;5.73;;;;;;;10.65;53.86;99819.47;5001204;28;20199;-60
2022/04/12 06:50:10;;;;;;;8.73;5.87;;;;;;;11.46;52.50;99815.41;4983105;28;20761;-58
2022/04/12 06:52:36;;;;;;;8.53;5.17;;;;;;;12.05;50.24;99820.28;4988378;28;20256;-58
2022/04/12 06:55:02;;;;;;;8.37;5.20;;;;;;;13.19;47.31;99819.53;4972536;28;20176;-57
2022/04/12 06:57:35;;;;;;;8.93;6.30;;;;;;;13.52;45.25;99810.38;4974638;28;20214;-58
2022/04/12 07:00:01;;;;;;;6.90;5.13;;;;;;;14.07;43.85;99812.47;4974280;28;20267;-57
2022/04/12 07:02:26;;;;;;;9.87;6.57;;;;;;;14.95;41.84;99808.47;4928008;28;20289;-56
2022/04/12 07:04:52;;;;;;;7.77;5.27;;;;;;;14.40;42.55;99808.31;4992097;28;20737;-57
2022/04/12 07:07:17;;;;;;;6.80;5.53;;;;;;;14.89;41.02;99806.34;4993737;28;20266;-57
2022/04/12 07:09:42;;;;;;;6.87;5.70;;;;;;;14.12;42.13;99804.38;4993233;28;20934;-57
2022/04/12 07:12:08;;;;;;;9.10;5.23;;;;;;;14.03;42.95;99801.53;4986964;28;20225;-57
2022/04/12 07:14:33;;;;;;;5.97;5.37;;;;;;;14.18;42.48;99809.09;4991831;28;20186;-57
2022/04/12 07:16:59;;;;;;;6.90;6.20;;;;;;;14.17;42.56;99807.44;4998356;28;20232;-59
2022/04/12 07:19:25;;;;;;;7.87;6.20;;;;;;;14.67;41.73;99820.13;5009328;28;20186;-58
2022/04/12 07:21:51;;;;;;;10.27;5.53;;;;;;;15.28;40.06;99824.06;4994394;28;20699;-57
2022/04/12 07:24:16;;;;;;;6.77;5.70;;;;;;;15.12;39.96;99824.44;4990018;28;20189;-58
2022/04/12 07:26:42;;;;;;;7.23;5.80;;;;;;;15.42;39.72;99813.44;4992232;28;20729;-57
2022/04/12 07:29:07;;;;;;;17.13;5.70;;;;;;;15.57;39.91;99826.16;4980050;28;20268;-57
2022/04/12 07:31:32;;;;;;;8.13;6.43;;;;;;;15.91;38.31;99818.25;4965616;28;20233;-59
2022/04/12 07:33:58;;;;;;;7.57;5.20;;;;;;;16.07;38.20;99812.63;5012902;28;20202;-58
2022/04/12 07:36:23;;;;;;;7.17;5.60;;;;;;;15.67;39.10;99818.44;5011515;28;20194;-57
2022/04/12 07:38:49;;;;;;;8.47;5.80;;;;;;;16.54;37.92;99826.00;5011638;28;20183;-57
2022/04/12 07:41:15;;;;;;;7.47;5.67;;;;;;;17.43;37.52;99821.97;5002151;28;20301;-59
2022/04/12 07:43:42;;;;;;;6.60;6.00;;;;;;;17.21;35.57;99826.44;4995169;28;20968;-59
2022/04/12 07:46:08;;;;;;;6.90;5.50;;;;;;;17.54;35.77;99829.63;5007195;28;20671;-58
2022/04/12 07:48:33;;;;;;;7.77;5.83;;;;;;;17.82;35.22;99832.38;4998346;28;20245;-58
2022/04/12 07:50:58;;;;;;;6.50;5.83;;;;;;;18.57;33.76;99828.31;4995826;28;20294;-58
2022/04/12 07:53:24;;;;;;;7.23;5.93;;;;;;;18.46;33.96;99830.13;4994364;28;20208;-60
2022/04/12 07:55:49;;;;;;;7.03;6.07;;;;;;;19.52;32.15;99818.50;5010043;28;20205;-61
2022/04/12 07:58:15;;;;;;;6.07;5.47;;;;;;;19.44;32.08;99821.84;5011899;28;20182;-57
2022/04/12 08:00:40;;;;;;;6.40;5.77;;;;;;;18.79;32.88;99814.94;5001598;28;20533;-57
2022/04/12 08:03:05;;;;;;;6.87;5.60;;;;;;;18.11;34.14;99817.72;4994517;28;20301;-58
2022/04/12 08:05:33;;;;;;;8.97;6.40;;;;;;;18.01;34.18;99817.75;5006625;28;20359;-58
2022/04/12 08:07:58;;;;;;;9.07;6.27;;;;;;;18.04;34.63;99807.88;5011983;28;20574;-59
2022/04/12 08:10:24;;;;;;;7.40;5.50;;;;;;;17.81;34.84;99806.50;5000603;28;20234;-58
2022/04/12 08:12:52;;;;;;;10.38;6.50;;;;;;;18.32;33.69;99807.97;4997338;28;20752;-62
2022/04/12 08:15:18;;;;;;;7.67;5.67;;;;;;;17.68;34.93;99812.78;5003446;28;20258;-58
2022/04/12 08:17:43;;;;;;;9.43;6.28;;;;;;;17.67;34.49;99811.16;5010288;28;20419;-58
2022/04/12 08:20:09;;;;;;;8.13;6.23;;;;;;;17.46;35.60;99815.66;4996634;28;20191;-59
2022/04/12 08:22:36;;;;;;;7.50;6.17;;;;;;;18.68;33.89;99817.69;4977118;28;20175;-59
2022/04/12 08:25:02;;;;;;;11.97;6.97;;;;;;;18.20;34.12;99819.50;4997954;28;20233;-59
2022/04/12 08:27:28;;;;;;;10.83;6.10;;;;;;;18.62;34.16;99820.88;4991661;28;20256;-59
2022/04/12 08:29:53;;;;;;;7.20;6.10;;;;;;;18.36;33.72;99809.31;4985130;28;20180;-58
2022/04/12 08:32:19;;;;;;;8.53;6.60;;;;;;;17.56;34.94;99812.13;4977731;28;20242;-58
2022/04/12 08:34:45;;;;;;;9.80;6.93;;;;;;;17.40;35.57;99810.06;4991905;28;20262;-60
2022/04/12 08:37:12;;;;;;;7.30;6.30;;;;;;;17.45;34.90;99794.03;4991046;28;20191;-58
2022/04/12 08:39:38;;;;;;;7.50;6.07;;;;;;;17.31;36.05;99799.66;5007195;28;20558;-59
2022/04/12 08:42:04;;;;;;;8.13;5.90;;;;;;;17.25;35.70;99798.38;4999488;28;20465;-62
2022/04/12 08:44:31;;;;;;;6.90;5.70;;;;;;;18.23;34.98;99799.22;4974755;28;20254;-61
2022/04/12 08:46:57;;;;;;;8.07;5.70;;;;;;;18.59;34.14;99795.94;4990949;28;20303;-60
2022/04/12 08:49:24;;;;;;;7.13;5.90;;;;;;;18.36;33.98;99796.31;4990925;28;20221;-60
2022/04/12 08:51:49;;;;;;;7.90;6.17;;;;;;;18.98;33.17;99800.22;4992777;28;20237;-62
2022/04/12 08:54:17;;;;;;;8.83;5.83;;;;;;;18.62;32.94;99795.66;4999734;28;20183;-60
2022/04/12 08:56:44;;;;;;;6.80;6.03;;;;;;;18.33;33.46;99808.78;5010217;28;20305;-59
2022/04/12 08:59:09;;;;;;;7.73;6.07;;;;;;;17.94;34.13;99814.03;5010661;28;20677;-59
2022/04/12 09:01:35;;;;;;;7.33;6.50;;;;;;;17.80;34.21;99810.06;4990136;28;20270;-59
2022/04/12 09:04:00;;;;;;;11.70;6.63;;;;;;;17.42;35.37;99812.50;4977715;28;20222;-60
2022/04/12 09:06:26;;;;;;;7.43;5.83;;;;;;;18.33;34.12;99803.56;4992439;28;20235;-59
2022/04/12 09:08:51;;;;;;;8.80;5.93;;;;;;;18.92;33.02;99796.38;4992049;28;20513;-59
2022/04/12 09:11:17;;;;;;;10.87;6.23;;;;;;;18.77;33.34;99800.41;4973801;28;20219;-60
2022/04/12 09:14:03;;;;;;;7.65;6.20;;;;;;;19.76;31.51;99802.25;4989812;28;20587;-67
2022/04/12 09:16:28;;;;;;;7.53;6.07;;;;;;;19.94;31.63;99806.66;4990046;28;20277;-61
2022/04/12 09:18:54;;;;;;;9.50;6.53;;;;;;;20.58;30.91;99803.81;4995048;28;20451;-61
2022/04/12 09:21:22;;;;;;;7.43;6.30;;;;;;;20.14;30.71;99802.06;4987314;28;20936;-60
2022/04/12 09:23:52;;;;;;;6.87;5.97;;;;;;;19.51;31.80;99786.41;4992936;28;20211;-60
2022/04/12 09:26:25;;;;;;;6.80;5.67;;;;;;;19.38;31.96;99779.91;5008886;28;20255;-59
2022/04/12 09:28:55;;;;;;;8.17;5.97;;;;;;;19.53;31.63;99775.81;5006890;28;20184;-60
2022/04/12 09:31:22;;;;;;;7.23;5.63;;;;;;;21.37;29.05;99783.47;4995743;28;20242;-59
2022/04/12 09:33:49;;;;;;;9.48;6.60;;;;;;;22.35;27.31;99773.09;5008870;28;20411;-59
2022/04/12 09:36:15;;;;;;;9.00;6.40;;;;;;;22.49;27.17;99769.81;5007745;28;20871;-59
2022/04/12 09:38:42;;;;;;;8.63;5.53;;;;;;;21.04;29.69;99772.13;5010414;28;20201;-60
2022/04/12 09:41:13;;;;;;;10.23;6.20;;;;;;;21.36;28.74;99776.59;5000777;28;20227;-60
2022/04/12 09:44:07;;;;;;;6.37;5.67;;;;;;;21.45;28.28;99769.56;5010625;28;20183;-59
2022/04/12 09:46:33;;;;;;;6.97;6.00;;;;;;;20.96;29.78;99765.91;5010479;28;20207;-60
2022/04/12 09:48:59;;;;;;;7.00;5.77;;;;;;;22.75;27.96;99767.88;5009974;28;20179;-60
2022/04/12 09:51:24;;;;;;;7.63;5.07;;;;;;;22.66;27.09;99760.06;4989048;28;20305;-60
2022/04/12 09:53:50;;;;;;;6.13;5.13;;;;;;;24.59;24.65;99760.78;5006027;28;20698;-62
2022/04/12 09:56:27;;;;;;;9.02;6.30;;;;;;;23.13;27.09;99758.31;5012335;28;20198;-60
2022/04/12 10:02:15;;;;;;;7.65;5.40;;;;;;;23.57;26.12;99751.66;4983071;28;20238;-61
2022/04/12 10:04:42;;;;;;;7.25;6.20;;;;;;;22.98;26.98;99750.38;5009564;28;20234;-60
2022/04/12 10:07:09;;;;;;;7.85;5.90;;;;;;;22.85;26.51;99756.19;5014405;28;20646;-59
2022/04/12 10:09:38;;;;;;;9.38;6.05;;;;;;;22.73;27.07;99752.34;5013132;28;20614;-61
2022/04/12 10:12:08;;;;;;;8.88;4.85;;;;;;;22.94;27.06;99738.63;4989575;28;20230;-60
2022/04/12 10:14:35;;;;;;;8.40;6.32;;;;;;;24.17;25.09;99733.34;5014144;28;20183;-60
2022/04/12 10:17:00;;;;;;;9.27;6.15;;;;;;;23.29;26.43;99725.94;5014470;28;20202;-60
2022/04/12 10:19:27;;;;;;;8.07;5.82;;;;;;;24.45;24.79;99722.19;5003522;28;20227;-61
2022/04/12 10:21:52;;;;;;;7.35;5.93;;;;;;;24.76;24.91;99723.78;4998106;28;20325;-59
2022/04/12 10:24:18;;;;;;;7.13;5.75;;;;;;;25.45;24.05;99720.63;5000959;28;20258;-60
2022/04/12 10:26:45;;;;;;;7.75;6.20;;;;;;;26.28;22.63;99718.31;5012998;28;20213;-60
2022/04/12 10:29:13;;;;;;;7.30;6.57;;;;;;;26.44;22.34;99719.81;5010570;28;20514;-60
2022/04/12 10:31:40;;;;;;;7.95;5.93;;;;;;;25.47;23.78;99714.34;5002515;28;20222;-60
2022/04/12 10:34:11;;;;;;;9.73;6.22;;;;;;;24.05;24.83;99712.00;5013108;28;20265;-59
2022/04/12 10:36:57;;;;;;;7.90;5.47;;;;;;;20.42;30.11;99702.66;5007786;28;20241;-60
2022/04/12 10:39:31;;;;;;;12.55;5.85;;;;;;;19.94;31.38;99692.63;5013106;28;20206;-59
2022/04/12 10:41:58;;;;;;;7.53;5.50;;;;;;;19.76;31.36;99687.44;4988940;28;20559;-59
2022/04/12 10:44:25;;;;;;;14.20;4.63;;;;;;;19.51;32.48;99676.84;5013290;28;20179;-59
2022/04/12 10:46:51;;;;;;;8.23;4.03;;;;;;;18.67;32.59;99675.41;5012386;28;20296;-59
2022/04/12 10:49:20;;;;;;;7.27;4.47;;;;;;;18.41;33.10;99676.09;5012882;28;20198;-59
2022/04/12 10:51:46;;;;;;;7.47;4.57;;;;;;;18.33;32.88;99670.78;5000012;28;20412;-60
2022/04/12 10:54:29;;;;;;;6.23;4.97;;;;;;;18.43;33.70;99675.94;4970195;28;20180;-60
2022/04/12 10:57:21;;;;;;;7.60;5.35;;;;;;;18.47;34.54;99667.72;4985693;28;20868;-60
2022/04/12 10:59:58;;;;;;;6.20;4.90;;;;;;;18.06;34.10;99672.44;4994117;28;20746;-61
2022/04/12 11:02:29;;;;;;;6.83;4.50;;;;;;;18.00;34.56;99663.41;4982940;28;20234;-59
2022/04/12 11:04:54;;;;;;;5.90;4.20;;;;;;;18.15;33.82;99662.94;5004855;28;20238;-61
2022/04/12 11:07:31;;;;;;;5.87;3.63;;;;;;;18.14;34.73;99656.91;5013459;28;20206;-60
2022/04/12 11:10:26;;;;;;;7.30;4.00;;;;;;;18.69;33.33;99660.44;5011787;28;20194;-60
2022/04/12 11:13:06;;;;;;;7.63;3.53;;;;;;;18.44;33.65;99656.75;4997631;28;20218;-63
2022/04/12 11:15:33;;;;;;;4.13;3.63;;;;;;;18.96;33.61;99648.38;5004840;28;20244;-60
2022/04/12 11:18:12;;;;;;;3.97;3.53;;;;;;;18.91;33.27;99648.78;5007474;28;20635;-60
2022/04/12 11:20:40;;;;;;;8.60;4.00;;;;;;;19.23;33.24;99649.25;4968468;28;20273;-59
2022/04/12 11:23:09;;;;;;;6.93;4.10;;;;;;;19.42;32.90;99649.03;4979183;28;20199;-60
2022/04/12 11:25:36;;;;;;;5.80;3.80;;;;;;;19.30;34.00;99642.44;5008500;28;20596;-59
2022/04/12 11:28:01;;;;;;;4.60;3.80;;;;;;;18.99;34.35;99637.63;4990981;28;20443;-62
2022/04/12 11:30:28;;;;;;;7.00;4.28;;;;;;;19.17;33.11;99635.81;4963417;28;20523;-64
2022/04/12 11:32:55;;;;;;;6.60;4.63;;;;;;;19.70;32.73;99633.25;4990800;28;20452;-66
2022/04/12 11:35:22;;;;;;;5.37;3.73;;;;;;;19.46;32.84;99628.69;4992982;28;20694;-65
2022/04/12 11:37:48;;;;;;;7.70;3.50;;;;;;;19.38;33.93;99626.06;4992005;28;20207;-62